createdAt,value
2023-02-08T00:00:14.263Z,79.40
2023-02-08T00:01:14.300Z,79.50
2023-02-08T00:02:14.251Z,79.40
2023-02-08T00:03:14.228Z,79.40
2023-02-08T00:04:14.244Z,79.72
2023-02-08T00:05:14.223Z,79.30
2023-02-08T00:06:14.204Z,79.30
2023-02-08T00:07:14.194Z,79.40
2023-02-08T00:08:14.184Z,79.50
2023-02-08T00:09:14.175Z,79.61
2023-02-08T00:10:14.174Z,78.56
2023-02-08T00:11:14.172Z,78.15
2023-02-08T00:12:14.163Z,77.94
2023-02-08T00:13:14.131Z,78.56
2023-02-08T00:14:14.115Z,78.56
2023-02-08T00:15:14.118Z,78.56
2023-02-08T00:16:14.151Z,78.77
2023-02-08T00:17:14.108Z,79.58
2023-02-08T00:18:14.093Z,79.50
2023-02-08T00:19:14.069Z,79.72
2023-02-08T00:20:14.079Z,79.30
2023-02-08T00:21:14.052Z,79.30
2023-02-08T00:22:14.049Z,79.40
2023-02-08T00:23:14.044Z,79.61
2023-02-08T00:24:14.065Z,78.99
2023-02-08T00:25:14.014Z,77.94
2023-02-08T00:26:13.990Z,77.52
2023-02-08T00:27:13.980Z,77.34
2023-02-08T00:28:14.084Z,78.04
2023-02-08T00:29:13.976Z,79.64
2023-02-08T00:30:13.954Z,78.99
2023-02-08T00:31:14.102Z,78.36
2023-02-08T00:32:13.926Z,78.88
2023-02-08T00:33:13.934Z,79.30
2023-02-08T00:34:13.918Z,79.40
2023-02-08T00:35:13.926Z,79.40
2023-02-08T00:36:13.883Z,79.50
2023-02-08T00:37:13.914Z,79.61
2023-02-08T00:38:13.869Z,78.15
2023-02-08T00:39:13.875Z,77.62
2023-02-08T00:40:13.854Z,77.31
2023-02-08T00:41:13.856Z,78.25
2023-02-08T00:42:13.814Z,78.04
2023-02-08T00:43:13.816Z,78.67
2023-02-08T00:44:13.807Z,79.19
2023-02-08T00:45:13.796Z,78.99
2023-02-08T00:46:13.789Z,79.19
2023-02-08T00:47:13.792Z,78.15
2023-02-08T00:48:13.768Z,77.73
2023-02-08T00:49:13.761Z,77.62
2023-02-08T00:50:13.729Z,77.62
2023-02-08T00:51:13.735Z,77.28
2023-02-08T00:52:13.733Z,76.86
2023-02-08T00:53:13.701Z,76.65
2023-02-08T00:54:13.702Z,76.75
2023-02-08T00:55:13.680Z,76.65
2023-02-08T00:56:13.673Z,76.33
2023-02-08T00:57:13.685Z,76.33
2023-02-08T00:58:13.661Z,76.44
2023-02-08T00:59:13.639Z,76.33
2023-02-08T01:00:13.721Z,75.98
2023-02-08T01:01:13.749Z,75.36
2023-02-08T01:02:13.677Z,75.49
2023-02-08T01:03:13.596Z,75.18
2023-02-08T01:04:13.585Z,74.84
2023-02-08T01:05:13.637Z,75.04
2023-02-08T01:06:13.581Z,74.94
2023-02-08T01:07:13.570Z,75.15
2023-02-08T01:08:13.548Z,75.15
2023-02-08T01:09:13.539Z,75.04
2023-02-08T01:10:13.549Z,74.73
2023-02-08T01:11:13.516Z,74.73
2023-02-08T01:12:13.511Z,75.32
2023-02-08T01:13:13.493Z,75.04
2023-02-08T01:14:13.497Z,75.12
2023-02-08T01:15:13.471Z,75.01
2023-02-08T01:16:13.524Z,75.12
2023-02-08T01:17:13.465Z,75.12
2023-02-08T01:18:13.467Z,75.15
2023-02-08T01:19:13.432Z,75.63
2023-02-08T01:20:13.435Z,74.63
2023-02-08T01:21:13.432Z,74.84
2023-02-08T01:22:13.400Z,74.73
2023-02-08T01:23:13.388Z,75.57
2023-02-08T01:24:13.423Z,75.26
2023-02-08T01:25:13.378Z,75.98
2023-02-08T01:26:13.354Z,76.20
2023-02-08T01:27:13.348Z,76.82
2023-02-08T01:28:13.402Z,76.75
2023-02-08T01:29:13.329Z,76.82
2023-02-08T01:30:13.332Z,77.97
2023-02-08T01:31:13.353Z,77.55
2023-02-08T01:32:13.293Z,77.59
2023-02-08T01:33:13.284Z,77.38
2023-02-08T01:34:13.283Z,77.59
2023-02-08T01:35:13.262Z,77.48
2023-02-08T01:36:13.273Z,77.80
2023-02-08T01:37:13.281Z,78.15
2023-02-08T01:38:13.253Z,78.15
2023-02-08T01:39:13.244Z,78.56
2023-02-08T01:40:13.203Z,79.61
2023-02-08T01:41:13.197Z,79.61
2023-02-08T01:42:13.184Z,79.61
2023-02-08T01:43:13.185Z,79.50
2023-02-08T01:44:13.187Z,79.50
2023-02-08T01:45:13.159Z,79.54
2023-02-08T01:46:13.149Z,79.86
2023-02-08T01:47:13.136Z,80.03
2023-02-08T01:48:13.137Z,80.13
2023-02-08T01:49:13.131Z,80.66
2023-02-08T01:50:13.119Z,81.01
2023-02-08T01:51:13.098Z,80.55
2023-02-08T01:52:13.119Z,80.24
2023-02-08T01:53:13.088Z,80.35
2023-02-08T01:54:13.085Z,80.97
2023-02-08T01:55:13.051Z,80.66
2023-02-08T01:56:13.052Z,80.45
2023-02-08T01:57:13.048Z,80.45
2023-02-08T01:58:13.017Z,80.49
2023-02-08T01:59:13.032Z,80.17
2023-02-08T02:00:13.000Z,80.13
2023-02-08T02:01:13.018Z,80.13
2023-02-08T02:02:12.994Z,80.24
2023-02-08T02:03:12.970Z,80.24
2023-02-08T02:04:13.008Z,80.13
2023-02-08T02:05:12.957Z,80.13
2023-02-08T02:06:12.977Z,80.13
2023-02-08T02:07:12.925Z,79.93
2023-02-08T02:08:12.927Z,79.82
2023-02-08T02:09:12.924Z,79.50
2023-02-08T02:10:12.909Z,79.82
2023-02-08T02:11:12.906Z,79.30
2023-02-08T02:12:12.892Z,79.40
2023-02-08T02:13:12.862Z,79.61
2023-02-08T02:14:12.859Z,80.45
2023-02-08T02:15:12.867Z,79.30
2023-02-08T02:16:12.847Z,79.72
2023-02-08T02:17:12.820Z,79.72
2023-02-08T02:18:12.814Z,79.30
2023-02-08T02:19:12.813Z,79.82
2023-02-08T02:20:12.816Z,79.93
2023-02-08T02:21:12.782Z,79.61
2023-02-08T02:22:12.783Z,80.13
2023-02-08T02:23:12.758Z,80.03
2023-02-08T02:24:12.744Z,80.24
2023-02-08T02:25:12.760Z,80.35
2023-02-08T02:26:12.757Z,80.13
2023-02-08T02:27:12.744Z,80.13
2023-02-08T02:28:12.773Z,80.45
2023-02-08T02:29:12.692Z,80.35
2023-02-08T02:30:12.685Z,80.13
2023-02-08T02:31:12.671Z,80.13
2023-02-08T02:32:12.657Z,80.13
2023-02-08T02:33:12.668Z,80.07
2023-02-08T02:34:12.682Z,80.38
2023-02-08T02:35:12.632Z,80.27
2023-02-08T02:36:12.627Z,80.69
2023-02-08T02:37:12.607Z,80.49
2023-02-08T02:38:12.614Z,81.12
2023-02-08T02:39:12.610Z,82.09
2023-02-08T02:40:12.595Z,81.74
2023-02-08T02:41:12.587Z,81.67
2023-02-08T02:42:12.559Z,81.78
2023-02-08T02:43:12.559Z,82.09
2023-02-08T02:44:12.534Z,82.51
2023-02-08T02:45:12.556Z,81.99
2023-02-08T02:46:12.621Z,82.30
2023-02-08T02:47:12.502Z,82.82
2023-02-08T02:48:12.492Z,83.14
2023-02-08T02:49:12.481Z,82.82
2023-02-08T02:50:12.480Z,82.72
2023-02-08T02:51:12.494Z,83.03
2023-02-08T02:52:12.459Z,83.03
2023-02-08T02:53:12.452Z,83.35
2023-02-08T02:54:12.438Z,82.97
2023-02-08T02:55:12.417Z,83.39
2023-02-08T02:56:12.430Z,82.76
2023-02-08T02:57:12.435Z,83.07
2023-02-08T02:58:12.401Z,83.49
2023-02-08T02:59:12.377Z,83.39
2023-02-08T03:00:12.389Z,83.18
2023-02-08T03:01:12.469Z,83.18
2023-02-08T03:02:12.347Z,83.28
2023-02-08T03:03:12.347Z,83.49
2023-02-08T03:04:12.370Z,84.01
2023-02-08T03:05:12.314Z,84.37
2023-02-08T03:06:12.304Z,83.49
2023-02-08T03:07:12.289Z,83.49
2023-02-08T03:08:12.284Z,83.49
2023-02-08T03:09:12.298Z,83.32
2023-02-08T03:10:12.273Z,83.39
2023-02-08T03:11:12.245Z,83.39
2023-02-08T03:12:12.246Z,83.28
2023-02-08T03:13:12.246Z,83.49
2023-02-08T03:14:12.219Z,83.49
2023-02-08T03:15:12.223Z,82.97
2023-02-08T03:16:12.214Z,83.28
2023-02-08T03:17:12.189Z,83.49
2023-02-08T03:18:12.183Z,83.28
2023-02-08T03:19:12.180Z,83.28
2023-02-08T03:20:12.198Z,83.70
2023-02-08T03:21:12.172Z,83.59
2023-02-08T03:22:12.141Z,83.32
2023-02-08T03:23:12.123Z,83.42
2023-02-08T03:24:12.113Z,83.11
2023-02-08T03:25:12.146Z,83.01
2023-02-08T03:26:12.088Z,83.39
2023-02-08T03:27:12.092Z,83.59
2023-02-08T03:28:12.135Z,83.84
2023-02-08T03:29:12.081Z,83.74
2023-02-08T03:30:12.061Z,83.95
2023-02-08T03:31:12.176Z,84.16
2023-02-08T03:32:12.028Z,83.95
2023-02-08T03:33:12.027Z,84.27
2023-02-08T03:34:12.004Z,84.16
2023-02-08T03:35:12.013Z,83.98
2023-02-08T03:36:11.984Z,84.16
2023-02-08T03:37:11.975Z,83.64
2023-02-08T03:38:11.981Z,84.58
2023-02-08T03:39:11.980Z,84.68
2023-02-08T03:40:11.946Z,84.72
2023-02-08T03:41:11.930Z,84.09
2023-02-08T03:42:11.929Z,84.51
2023-02-08T03:43:11.930Z,84.89
2023-02-08T03:44:11.924Z,84.62
2023-02-08T03:45:11.910Z,84.72
2023-02-08T03:46:11.972Z,84.51
2023-02-08T03:47:11.867Z,84.62
2023-02-08T03:48:11.861Z,84.83
2023-02-08T03:49:11.850Z,84.41
2023-02-08T03:50:11.847Z,84.51
2023-02-08T03:51:11.844Z,84.72
2023-02-08T03:52:11.834Z,84.83
2023-02-08T03:53:11.815Z,84.62
2023-02-08T03:54:11.804Z,85.14
2023-02-08T03:55:11.790Z,85.14
2023-02-08T03:56:11.783Z,84.76
2023-02-08T03:57:11.791Z,85.25
2023-02-08T03:58:11.757Z,84.83
2023-02-08T03:59:11.781Z,84.51
2023-02-08T04:00:11.751Z,85.03
2023-02-08T04:01:11.795Z,84.62
2023-02-08T04:02:11.749Z,85.18
2023-02-08T04:03:11.737Z,85.56
2023-02-08T04:04:11.711Z,85.56
2023-02-08T04:05:11.741Z,85.25
2023-02-08T04:06:11.666Z,86.08
2023-02-08T04:07:11.662Z,85.88
2023-02-08T04:08:11.662Z,85.35
2023-02-08T04:09:11.664Z,85.66
2023-02-08T04:10:11.632Z,84.93
2023-02-08T04:11:11.622Z,85.66
2023-02-08T04:12:11.607Z,85.25
2023-02-08T04:13:11.615Z,85.98
2023-02-08T04:14:11.602Z,85.88
2023-02-08T04:15:11.603Z,85.66
2023-02-08T04:16:11.604Z,85.25
2023-02-08T04:17:11.570Z,85.14
2023-02-08T04:18:11.548Z,85.03
2023-02-08T04:19:11.539Z,85.14
2023-02-08T04:20:11.543Z,84.76
2023-02-08T04:21:11.527Z,84.97
2023-02-08T04:22:11.521Z,85.08
2023-02-08T04:23:11.487Z,85.56
2023-02-08T04:24:11.484Z,84.97
2023-02-08T04:25:11.475Z,85.28
2023-02-08T04:26:12.107Z,85.66
2023-02-08T04:27:11.481Z,85.28
2023-02-08T04:28:11.472Z,85.81
2023-02-08T04:29:11.444Z,85.18
2023-02-08T04:30:11.418Z,85.28
2023-02-08T04:31:11.564Z,85.18
2023-02-08T04:32:11.414Z,85.28
2023-02-08T04:33:11.403Z,85.39
2023-02-08T04:34:11.380Z,85.18
2023-02-08T04:35:11.393Z,85.39
2023-02-08T04:36:11.382Z,85.39
2023-02-08T04:37:11.372Z,86.02
2023-02-08T04:38:11.380Z,85.98
2023-02-08T04:39:11.337Z,85.81
2023-02-08T04:40:11.329Z,85.28
2023-02-08T04:41:11.309Z,86.02
2023-02-08T04:42:11.311Z,85.39
2023-02-08T04:43:11.307Z,85.28
2023-02-08T04:44:12.110Z,85.60
2023-02-08T04:45:11.270Z,85.71
2023-02-08T04:46:11.332Z,85.60
2023-02-08T04:47:11.262Z,85.28
2023-02-08T04:48:12.063Z,85.39
2023-02-08T04:49:11.268Z,85.39
2023-02-08T04:50:11.217Z,85.60
2023-02-08T04:51:11.205Z,85.91
2023-02-08T04:52:11.197Z,85.28
2023-02-08T04:53:11.209Z,85.28
2023-02-08T04:54:11.234Z,85.91
2023-02-08T04:55:11.180Z,85.49
2023-02-08T04:56:11.156Z,84.97
2023-02-08T04:57:11.148Z,85.46
2023-02-08T04:58:11.134Z,84.97
2023-02-08T04:59:11.165Z,85.35
2023-02-08T05:00:11.126Z,85.03
2023-02-08T05:01:11.102Z,85.18
2023-02-08T05:02:11.092Z,85.18
2023-02-08T05:03:11.087Z,85.49
2023-02-08T05:04:11.087Z,85.81
2023-02-08T05:05:11.103Z,86.54
2023-02-08T05:06:11.064Z,85.39
2023-02-08T05:07:11.106Z,84.83
2023-02-08T05:08:11.030Z,85.25
2023-02-08T05:09:11.016Z,84.62
2023-02-08T05:10:11.013Z,84.51
2023-02-08T05:11:10.991Z,83.57
2023-02-08T05:12:11.005Z,83.15
2023-02-08T05:13:11.026Z,83.15
2023-02-08T05:14:10.969Z,83.01
2023-02-08T05:15:10.957Z,83.11
2023-02-08T05:16:11.006Z,82.90
2023-02-08T05:17:10.949Z,83.42
2023-02-08T05:18:10.930Z,83.22
2023-02-08T05:19:10.941Z,82.59
2023-02-08T05:20:10.924Z,82.27
2023-02-08T05:21:10.940Z,81.96
2023-02-08T05:22:10.888Z,82.45
2023-02-08T05:23:10.885Z,82.27
2023-02-08T05:24:10.930Z,82.13
2023-02-08T05:25:10.859Z,81.64
2023-02-08T05:26:10.848Z,81.60
2023-02-08T05:27:10.850Z,82.06
2023-02-08T05:28:10.870Z,81.54
2023-02-08T05:29:10.936Z,81.54
2023-02-08T05:30:10.814Z,80.98
2023-02-08T05:31:10.876Z,81.33
2023-02-08T05:32:10.799Z,81.19
2023-02-08T05:33:10.800Z,81.01
2023-02-08T05:34:10.764Z,81.12
2023-02-08T05:35:10.809Z,81.64
2023-02-08T05:36:10.772Z,81.43
2023-02-08T05:37:10.765Z,81.23
2023-02-08T05:38:10.747Z,81.64
2023-02-08T05:39:10.711Z,81.54
2023-02-08T05:40:10.697Z,81.85
2023-02-08T05:41:10.687Z,81.64
2023-02-08T05:42:10.737Z,81.85
2023-02-08T05:43:10.685Z,81.85
2023-02-08T05:44:10.666Z,81.85
2023-02-08T05:45:10.647Z,82.13
2023-02-08T05:46:10.655Z,81.75
2023-02-08T05:47:10.659Z,81.85
2023-02-08T05:48:10.722Z,81.82
2023-02-08T05:49:10.654Z,82.27
2023-02-08T05:50:10.603Z,81.60
2023-02-08T05:51:10.591Z,82.13
2023-02-08T05:52:10.577Z,81.82
2023-02-08T05:53:10.605Z,81.82
2023-02-08T05:54:10.642Z,81.29
2023-02-08T05:55:10.579Z,80.98
2023-02-08T05:56:10.560Z,80.66
2023-02-08T05:57:10.525Z,81.08
2023-02-08T05:58:10.547Z,81.19
2023-02-08T05:59:10.523Z,81.75
2023-02-08T06:00:10.536Z,81.75
2023-02-08T06:01:10.550Z,81.85
2023-02-08T06:02:10.477Z,81.85
2023-02-08T06:03:10.552Z,81.85
2023-02-08T06:04:10.481Z,81.75
2023-02-08T06:05:10.457Z,81.96
2023-02-08T06:06:10.426Z,82.06
2023-02-08T06:07:10.478Z,82.06
2023-02-08T06:08:10.417Z,81.64
2023-02-08T06:09:10.415Z,81.75
2023-02-08T06:10:11.504Z,81.12
2023-02-08T06:11:10.390Z,81.01
2023-02-08T06:12:10.371Z,81.68
2023-02-08T06:13:10.434Z,81.85
2023-02-08T06:14:10.348Z,81.85
2023-02-08T06:15:10.333Z,81.85
2023-02-08T06:16:10.448Z,81.33
2023-02-08T06:17:10.314Z,81.01
2023-02-08T06:18:10.347Z,81.33
2023-02-08T06:19:10.298Z,81.01
2023-02-08T06:20:10.357Z,80.49
2023-02-08T06:21:10.298Z,79.97
2023-02-08T06:22:10.277Z,79.86
2023-02-08T06:23:10.245Z,79.44
2023-02-08T06:24:10.270Z,79.75
2023-02-08T06:25:10.265Z,79.65
2023-02-08T06:26:10.278Z,79.55
2023-02-08T06:27:10.227Z,79.55
2023-02-08T06:28:10.242Z,78.81
2023-02-08T06:29:10.187Z,78.78
2023-02-08T06:30:10.214Z,78.60
2023-02-08T06:31:10.196Z,78.39
2023-02-08T06:32:10.289Z,78.15
2023-02-08T06:33:10.146Z,78.60
2023-02-08T06:34:10.173Z,78.46
2023-02-08T06:35:10.152Z,78.50
2023-02-08T06:36:10.135Z,78.46
2023-02-08T06:37:10.101Z,78.15
2023-02-08T06:38:10.142Z,78.05
2023-02-08T06:39:10.087Z,78.46
2023-02-08T06:40:10.099Z,78.36
2023-02-08T06:41:10.088Z,78.57
2023-02-08T06:42:10.071Z,78.05
2023-02-08T06:43:10.059Z,78.46
2023-02-08T06:44:10.100Z,78.05
2023-02-08T06:45:12.659Z,77.62
2023-02-08T06:46:10.045Z,77.20
2023-02-08T06:47:10.006Z,77.52
2023-02-08T06:48:10.017Z,77.73
2023-02-08T06:49:09.996Z,76.75
2023-02-08T06:50:10.018Z,77.62
2023-02-08T06:51:09.968Z,78.11
2023-02-08T06:52:09.966Z,78.43
2023-02-08T06:53:09.945Z,78.43
2023-02-08T06:54:09.947Z,79.27
2023-02-08T06:55:09.921Z,79.72
2023-02-08T06:56:09.920Z,77.83
2023-02-08T06:57:09.929Z,77.73
2023-02-08T06:58:09.939Z,78.25
2023-02-08T06:59:09.880Z,78.67
2023-02-08T07:00:09.869Z,79.23
2023-02-08T07:01:09.951Z,79.55
2023-02-08T07:02:09.866Z,79.75
2023-02-08T07:03:09.845Z,79.97
2023-02-08T07:04:09.880Z,80.28
2023-02-08T07:05:09.834Z,80.60
2023-02-08T07:06:09.825Z,80.28
2023-02-08T07:07:09.833Z,80.60
2023-02-08T07:08:09.787Z,80.32
2023-02-08T07:09:09.783Z,80.94
2023-02-08T07:10:09.763Z,80.63
2023-02-08T07:11:09.787Z,81.05
2023-02-08T07:12:09.749Z,82.10
2023-02-08T07:13:09.763Z,81.68
2023-02-08T07:14:09.737Z,81.89
2023-02-08T07:15:09.720Z,82.10
2023-02-08T07:16:09.875Z,82.10
2023-02-08T07:17:09.735Z,81.79
2023-02-08T07:18:09.700Z,82.31
2023-02-08T07:19:09.711Z,81.99
2023-02-08T07:20:09.665Z,81.79
2023-02-08T07:21:09.659Z,82.10
2023-02-08T07:22:09.645Z,81.89
2023-02-08T07:23:09.635Z,82.20
2023-02-08T07:24:09.647Z,81.82
2023-02-08T07:25:09.665Z,81.82
2023-02-08T07:26:09.608Z,81.79
2023-02-08T07:27:09.605Z,82.35
2023-02-08T07:28:09.633Z,82.31
2023-02-08T07:29:09.593Z,82.42
2023-02-08T07:30:09.580Z,82.24
2023-02-08T07:31:09.650Z,82.03
2023-02-08T07:32:09.618Z,81.40
2023-02-08T07:33:09.533Z,80.84
2023-02-08T07:34:09.518Z,80.11
2023-02-08T07:35:09.540Z,80.00
2023-02-08T07:36:09.503Z,80.32
2023-02-08T07:37:09.529Z,80.21
2023-02-08T07:38:09.504Z,79.86
2023-02-08T07:39:09.478Z,80.38
2023-02-08T07:40:09.467Z,79.86
2023-02-08T07:41:09.458Z,79.86
2023-02-08T07:42:09.441Z,79.65
2023-02-08T07:43:09.465Z,79.44
2023-02-08T07:44:09.423Z,79.86
2023-02-08T07:45:09.432Z,79.65
2023-02-08T07:46:09.496Z,79.65
2023-02-08T07:47:09.398Z,77.87
2023-02-08T07:48:09.383Z,78.78
2023-02-08T07:49:09.394Z,79.51
2023-02-08T07:50:09.375Z,79.61
2023-02-08T07:51:09.370Z,79.51
2023-02-08T07:52:09.342Z,79.72
2023-02-08T07:53:09.344Z,79.20
2023-02-08T07:54:09.329Z,78.57
2023-02-08T07:55:09.358Z,78.15
2023-02-08T07:56:09.292Z,78.05
2023-02-08T07:57:09.294Z,78.85
2023-02-08T07:58:09.284Z,78.64
2023-02-08T07:59:09.272Z,79.58
2023-02-08T08:00:09.259Z,79.58
2023-02-08T08:01:21.291Z,78.43
2023-02-08T08:02:10.255Z,77.55
2023-02-08T08:03:09.235Z,77.03
2023-02-08T08:04:09.234Z,76.06
2023-02-08T08:05:09.208Z,76.47
2023-02-08T08:06:09.211Z,76.12
2023-02-08T08:07:09.215Z,75.81
2023-02-08T08:08:09.174Z,75.92
2023-02-08T08:09:09.171Z,76.09
2023-02-08T08:10:09.165Z,76.20
2023-02-08T08:11:09.147Z,76.12
2023-02-08T08:12:09.156Z,76.33
2023-02-08T08:13:09.144Z,75.92
2023-02-08T08:14:09.110Z,75.15
2023-02-08T08:15:09.127Z,75.26
2023-02-08T08:16:09.167Z,76.20
2023-02-08T08:17:09.103Z,77.24
2023-02-08T08:18:09.077Z,77.41
2023-02-08T08:19:09.080Z,77.41
2023-02-08T08:20:09.089Z,77.37
2023-02-08T08:21:09.041Z,77.27
2023-02-08T08:22:09.025Z,77.66
2023-02-08T08:23:09.022Z,76.57
2023-02-08T08:24:09.021Z,76.57
2023-02-08T08:25:09.015Z,75.50
2023-02-08T08:26:08.981Z,75.71
2023-02-08T08:27:08.997Z,75.88
2023-02-08T08:28:08.986Z,75.36
2023-02-08T08:29:08.951Z,75.54
2023-02-08T08:30:08.960Z,74.60
2023-02-08T08:31:09.067Z,72.20
2023-02-08T08:32:11.506Z,71.65
2023-02-08T08:33:08.934Z,71.03
2023-02-08T08:34:08.917Z,72.80
2023-02-08T08:35:08.899Z,71.13
2023-02-08T08:36:08.913Z,71.44
2023-02-08T08:37:08.867Z,71.97
2023-02-08T08:38:08.858Z,73.00
2023-02-08T08:39:08.861Z,72.80
2023-02-08T08:40:08.831Z,72.38
2023-02-08T08:41:08.823Z,73.35
2023-02-08T08:42:08.831Z,73.52
2023-02-08T08:43:08.857Z,73.94
2023-02-08T08:44:08.815Z,73.21
2023-02-08T08:45:08.794Z,70.48
2023-02-08T08:46:08.894Z,70.40
2023-02-08T08:47:08.772Z,72.90
2023-02-08T08:48:08.784Z,72.49
2023-02-08T08:49:08.764Z,73.18
2023-02-08T08:50:08.747Z,71.31
2023-02-08T08:51:08.722Z,70.48
2023-02-08T08:52:08.709Z,68.29
2023-02-08T08:53:08.701Z,68.26
2023-02-08T08:54:08.720Z,68.23
2023-02-08T08:55:08.693Z,68.33
2023-02-08T08:56:08.695Z,71.24
2023-02-08T08:57:08.664Z,72.38
2023-02-08T08:58:08.643Z,70.41
2023-02-08T08:59:08.633Z,71.86
2023-02-08T09:00:08.661Z,69.58
2023-02-08T09:01:08.623Z,71.24
2023-02-08T09:02:08.613Z,71.62
2023-02-08T09:03:08.683Z,71.21
2023-02-08T09:04:08.576Z,70.97
2023-02-08T09:05:08.586Z,71.39
2023-02-08T09:06:08.566Z,71.14
2023-02-08T09:07:08.548Z,70.45
2023-02-08T09:08:08.552Z,70.31
2023-02-08T09:09:08.528Z,70.31
2023-02-08T09:10:08.515Z,70.62
2023-02-08T09:11:08.510Z,70.28
2023-02-08T09:12:08.509Z,70.31
2023-02-08T09:13:08.544Z,70.31
2023-02-08T09:14:08.481Z,70.62
2023-02-08T09:15:08.458Z,70.31
2023-02-08T09:16:08.477Z,68.52
2023-02-08T09:17:08.439Z,65.62
2023-02-08T09:18:08.468Z,64.06
2023-02-08T09:19:08.435Z,66.83
2023-02-08T09:20:08.424Z,68.18
2023-02-08T09:21:08.415Z,68.70
2023-02-08T09:22:08.379Z,68.70
2023-02-08T09:23:08.372Z,68.70
2023-02-08T09:24:08.413Z,67.76
2023-02-08T09:25:08.380Z,68.38
2023-02-08T09:26:08.339Z,66.83
2023-02-08T09:27:08.331Z,65.20
2023-02-08T09:28:08.337Z,67.72
2023-02-08T09:29:08.335Z,68.62
2023-02-08T09:30:08.308Z,68.62
2023-02-08T09:31:08.399Z,68.73
2023-02-08T09:32:10.181Z,67.76
2023-02-08T09:33:08.280Z,66.62
2023-02-08T09:34:08.257Z,63.82
2023-02-08T09:35:08.273Z,63.10
2023-02-08T09:36:08.287Z,64.34
2023-02-08T09:37:08.274Z,65.45
2023-02-08T09:38:08.213Z,65.73
2023-02-08T09:39:08.237Z,64.90
2023-02-08T09:40:08.189Z,65.39
2023-02-08T09:41:08.197Z,66.84
2023-02-08T09:42:08.196Z,64.46
2023-02-08T09:43:08.160Z,64.64
2023-02-08T09:44:08.148Z,63.68
2023-02-08T09:45:08.153Z,63.06
2023-02-08T09:46:08.137Z,61.92
2023-02-08T09:47:08.122Z,62.44
2023-02-08T09:48:08.134Z,61.15
2023-02-08T09:49:08.119Z,63.12
2023-02-08T09:50:08.090Z,63.37
2023-02-08T09:51:08.082Z,62.85
2023-02-08T09:52:08.061Z,59.34
2023-02-08T09:53:08.089Z,58.82
2023-02-08T09:54:08.052Z,59.39
2023-02-08T09:55:08.040Z,60.81
2023-02-08T09:56:08.035Z,61.61
2023-02-08T09:57:08.009Z,61.20
2023-02-08T09:58:08.002Z,59.67
2023-02-08T09:59:07.990Z,58.33
2023-02-08T10:00:07.992Z,58.20
2023-02-08T10:01:08.060Z,58.30
2023-02-08T10:02:07.955Z,58.38
2023-02-08T10:03:08.088Z,57.55
2023-02-08T10:04:07.935Z,56.41
2023-02-08T10:05:07.967Z,57.32
2023-02-08T10:06:07.923Z,57.32
2023-02-08T10:07:07.912Z,54.86
2023-02-08T10:08:07.904Z,55.49
2023-02-08T10:09:07.954Z,56.62
2023-02-08T10:10:07.884Z,57.65
2023-02-08T10:11:07.914Z,57.63
2023-02-08T10:12:07.852Z,55.26
2023-02-08T10:13:07.844Z,55.15
2023-02-08T10:14:07.830Z,54.55
2023-02-08T10:15:07.822Z,54.27
2023-02-08T10:16:07.937Z,54.74
2023-02-08T10:17:07.819Z,55.25
2023-02-08T10:18:07.826Z,56.88
2023-02-08T10:19:07.823Z,57.48
2023-02-08T10:20:07.786Z,56.75
2023-02-08T10:21:07.753Z,54.63
2023-02-08T10:22:08.460Z,53.70
2023-02-08T10:23:07.745Z,54.84
2023-02-08T10:24:07.721Z,54.43
2023-02-08T10:25:07.748Z,54.53
2023-02-08T10:26:07.721Z,54.02
2023-02-08T10:27:07.726Z,53.60
2023-02-08T10:28:07.816Z,53.16
2023-02-08T10:29:07.693Z,53.08
2023-02-08T10:30:07.661Z,53.37
2023-02-08T10:31:07.763Z,53.76
2023-02-08T10:32:07.686Z,53.34
2023-02-08T10:33:07.649Z,52.70
2023-02-08T10:34:08.619Z,53.01
2023-02-08T10:35:07.611Z,52.78
2023-02-08T10:36:07.605Z,51.34
2023-02-08T10:37:07.597Z,50.82
2023-02-08T10:38:07.568Z,51.70
2023-02-08T10:39:07.569Z,51.92
2023-02-08T10:40:07.544Z,52.52
2023-02-08T10:41:07.562Z,52.83
2023-02-08T10:42:07.571Z,52.60
2023-02-08T10:43:07.531Z,52.91
2023-02-08T10:44:07.519Z,51.15
2023-02-08T10:45:22.538Z,51.78
2023-02-08T10:46:08.541Z,51.07
2023-02-08T10:47:07.502Z,51.07
2023-02-08T10:48:07.472Z,51.39
2023-02-08T10:49:07.469Z,55.80
2023-02-08T10:50:07.447Z,51.34
2023-02-08T10:51:07.428Z,50.64
2023-02-08T10:52:07.482Z,49.11
2023-02-08T10:53:07.408Z,51.07
2023-02-08T10:54:07.418Z,51.79
2023-02-08T10:55:07.410Z,50.35
2023-02-08T10:56:07.421Z,50.12
2023-02-08T10:57:07.382Z,50.25
2023-02-08T10:58:07.359Z,49.34
2023-02-08T10:59:07.345Z,49.16
2023-02-08T11:00:07.365Z,49.41
2023-02-08T11:01:08.842Z,51.48
2023-02-08T11:02:07.310Z,50.86
2023-02-08T11:03:07.304Z,51.19
2023-02-08T11:04:07.314Z,51.29
2023-02-08T11:05:07.291Z,52.00
2023-02-08T11:06:07.268Z,53.13
2023-02-08T11:07:07.280Z,53.63
2023-02-08T11:08:07.294Z,51.04
2023-02-08T11:09:07.244Z,49.80
2023-02-08T11:10:07.218Z,50.55
2023-02-08T11:11:07.219Z,51.25
2023-02-08T11:12:07.197Z,51.17
2023-02-08T11:13:07.209Z,50.13
2023-02-08T11:14:07.211Z,51.07
2023-02-08T11:15:07.171Z,51.25
2023-02-08T11:16:07.220Z,50.84
2023-02-08T11:17:07.161Z,49.80
2023-02-08T11:18:07.167Z,51.12
2023-02-08T11:19:07.127Z,49.99
2023-02-08T11:20:07.158Z,50.81
2023-02-08T11:21:07.117Z,50.07
2023-02-08T11:22:07.124Z,50.99
2023-02-08T11:23:07.085Z,49.43
2023-02-08T11:24:07.106Z,49.86
2023-02-08T11:25:07.065Z,49.57
2023-02-08T11:26:07.072Z,50.09
2023-02-08T11:27:07.044Z,49.34
2023-02-08T11:28:07.117Z,49.44
2023-02-08T11:29:07.039Z,48.72
2023-02-08T11:30:07.020Z,48.13
2023-02-08T11:31:07.004Z,50.09
2023-02-08T11:32:07.029Z,48.95
2023-02-08T11:33:06.979Z,49.88
2023-02-08T11:34:06.982Z,49.49
2023-02-08T11:35:06.965Z,50.11
2023-02-08T11:36:06.960Z,49.70
2023-02-08T11:37:06.959Z,50.01
2023-02-08T11:38:06.937Z,49.49
2023-02-08T11:39:06.918Z,49.80
2023-02-08T11:40:06.908Z,48.97
2023-02-08T11:41:06.895Z,49.91
2023-02-08T11:42:06.898Z,49.60
2023-02-08T11:43:06.900Z,49.60
2023-02-08T11:44:06.896Z,49.29
2023-02-08T11:45:06.871Z,49.91
2023-02-08T11:46:06.898Z,50.03
2023-02-08T11:47:06.827Z,49.82
2023-02-08T11:48:06.839Z,50.13
2023-02-08T11:49:06.823Z,50.03
2023-02-08T11:50:06.817Z,55.69
2023-02-08T11:51:06.790Z,51.66
2023-02-08T11:52:06.780Z,50.45
2023-02-08T11:53:06.771Z,50.76
2023-02-08T11:54:06.803Z,51.37
2023-02-08T11:55:06.805Z,52.18
2023-02-08T11:56:06.743Z,49.80
2023-02-08T11:57:06.722Z,50.34
2023-02-08T11:58:06.733Z,50.32
2023-02-08T11:59:06.802Z,49.72
2023-02-08T12:00:06.726Z,50.55
2023-02-08T12:01:06.742Z,51.48
2023-02-08T12:02:06.726Z,51.89
2023-02-08T12:03:06.721Z,50.13
2023-02-08T12:04:06.648Z,51.79
2023-02-08T12:05:06.651Z,51.48
2023-02-08T12:06:06.628Z,52.20
2023-02-08T12:07:06.642Z,50.96
2023-02-08T12:08:06.623Z,50.96
2023-02-08T12:09:06.603Z,51.79
2023-02-08T12:10:06.588Z,50.96
2023-02-08T12:11:06.573Z,51.28
2023-02-08T12:12:07.010Z,51.28
2023-02-08T12:13:06.571Z,52.10
2023-02-08T12:14:06.559Z,52.10
2023-02-08T12:15:06.530Z,52.00
2023-02-08T12:16:06.594Z,50.96
2023-02-08T12:17:06.620Z,51.48
2023-02-08T12:18:06.500Z,51.28
2023-02-08T12:19:06.556Z,50.96
2023-02-08T12:20:06.477Z,51.76
2023-02-08T12:21:06.528Z,51.97
2023-02-08T12:22:06.490Z,52.18
2023-02-08T12:23:06.470Z,51.04
2023-02-08T12:24:06.454Z,50.11
2023-02-08T12:25:06.445Z,49.93
2023-02-08T12:26:06.439Z,51.89
2023-02-08T12:27:06.401Z,51.37
2023-02-08T12:28:06.450Z,51.89
2023-02-08T12:29:06.398Z,51.58
2023-02-08T12:30:06.378Z,51.37
2023-02-08T12:31:06.536Z,51.28
2023-02-08T12:32:06.407Z,50.52
2023-02-08T12:33:06.358Z,51.66
2023-02-08T12:34:06.341Z,51.45
2023-02-08T12:35:06.333Z,51.25
2023-02-08T12:36:06.867Z,51.25
2023-02-08T12:37:06.336Z,52.28
2023-02-08T12:38:06.281Z,52.28
2023-02-08T12:39:19.484Z,51.04
2023-02-08T12:40:07.257Z,51.87
2023-02-08T12:41:06.264Z,50.11
2023-02-08T12:42:06.240Z,50.01
2023-02-08T12:43:06.242Z,50.94
2023-02-08T12:44:06.248Z,50.34
2023-02-08T12:45:06.222Z,50.42
2023-02-08T12:46:06.271Z,50.34
2023-02-08T12:47:06.178Z,49.91
2023-02-08T12:48:06.179Z,50.42
2023-02-08T12:49:06.199Z,49.39
2023-02-08T12:50:06.173Z,50.94
2023-02-08T12:51:06.137Z,50.94
2023-02-08T12:52:08.164Z,51.25